Time;durP1;ratioP1;P1;durP2;ratioP2;P2;SDS_P1;SDS_P2;PMS_P1;PMS_P2;Temp;Humidity;BMP_temperature;BMP_pressure;BME280_temperature;BME280_humidity;BME280_pressure;Samples;Min_cycle;Max_cycle;Signal;HPM_P1;HPM_P2
2022/06/30 00:00:41;;;;;;;7.07;5.75;;;20.60;98.10;;;;;;5098544;28;20050;-77
2022/06/30 00:03:07;;;;;;;6.15;5.15;;;20.60;98.50;;;;;;5098430;28;20036;-78
2022/06/30 00:05:33;;;;;;;6.90;5.47;;;20.60;99.20;;;;;;5081582;28;20039;-78
2022/06/30 00:07:59;;;;;;;5.82;5.28;;;20.50;99.70;;;;;;5064577;28;20507;-78
2022/06/30 00:10:28;;;;;;;6.78;6.07;;;20.50;99.90;;;;;;5082398;28;20031;-78
2022/06/30 00:12:55;;;;;;;6.22;5.38;;;20.50;99.70;;;;;;5098319;28;20100;-77
2022/06/30 00:15:20;;;;;;;5.93;5.32;;;20.50;99.90;;;;;;5080918;28;20051;-78
2022/06/30 00:17:47;;;;;;;6.30;5.65;;;20.50;99.90;;;;;;5080783;28;20039;-78
2022/06/30 00:20:12;;;;;;;8.13;6.20;;;20.50;99.90;;;;;;5079560;28;20124;-78
2022/06/30 00:22:38;;;;;;;6.85;6.15;;;20.50;99.90;;;;;;5097700;28;20093;-78
2022/06/30 00:25:04;;;;;;;7.53;6.10;;;20.40;99.90;;;;;;5097887;28;20458;-78
2022/06/30 00:27:30;;;;;;;7.78;6.53;;;20.40;99.90;;;;;;5097725;28;20373;-78
2022/06/30 00:29:56;;;;;;;9.85;6.68;;;20.40;99.90;;;;;;5080534;28;20118;-77
2022/06/30 00:32:21;;;;;;;7.78;7.07;;;20.40;99.90;;;;;;5080343;28;20052;-78
2022/06/30 00:34:47;;;;;;;7.47;6.75;;;20.40;99.90;;;;;;5080557;28;20454;-78
2022/06/30 00:37:13;;;;;;;7.90;7.10;;;20.40;99.90;;;;;;5063900;28;20047;-78
2022/06/30 00:39:38;;;;;;;7.63;6.50;;;20.30;99.90;;;;;;5080513;28;20092;-78
2022/06/30 00:42:07;;;;;;;8.18;6.85;;;20.30;99.90;;;;;;5063634;28;20036;-78
2022/06/30 00:44:33;;;;;;;8.02;7.15;;;20.30;99.90;;;;;;5046861;28;20043;-78
2022/06/30 00:47:00;;;;;;;8.05;6.90;;;20.20;99.90;;;;;;5080214;28;20039;-78
2022/06/30 00:49:28;;;;;;;9.40;6.68;;;20.20;99.90;;;;;;5063434;28;20050;-78
2022/06/30 00:51:54;;;;;;;8.10;6.65;;;20.20;99.90;;;;;;5080049;28;20082;-77
2022/06/30 00:54:23;;;;;;;7.82;7.03;;;20.20;99.90;;;;;;5063273;28;20032;-78
2022/06/30 00:56:52;;;;;;;7.18;6.47;;;20.10;99.90;;;;;;5096765;28;20117;-78
2022/06/30 00:59:20;;;;;;;7.10;6.10;;;20.10;99.90;;;;;;5079815;28;20062;-78
2022/06/30 01:01:48;;;;;;;7.20;6.50;;;20.10;99.90;;;;;;5080085;28;20395;-78
2022/06/30 01:04:15;;;;;;;7.55;5.90;;;20.10;99.90;;;;;;5096566;28;20072;-78
2022/06/30 01:06:44;;;;;;;7.25;6.40;;;20.10;99.90;;;;;;5079896;28;20050;-78
2022/06/30 01:09:10;;;;;;;7.10;6.40;;;20.10;99.90;;;;;;5079998;28;20036;-78
2022/06/30 01:14:21;;;;;;;7.20;5.93;;;20.00;99.90;;;;;;5082895;28;20043;-78
2022/06/30 01:16:46;;;;;;;7.13;5.93;;;20.00;99.90;;;;;;5097146;28;20123;-78
2022/06/30 01:19:15;;;;;;;10.90;6.30;;;20.00;99.90;;;;;;5063313;28;20039;-78
2022/06/30 01:21:57;;;;;;;6.70;5.32;;;20.00;99.90;;;;;;5097210;28;20133;-78
2022/06/30 01:24:22;;;;;;;8.48;6.38;;;19.90;99.90;;;;;;5080338;28;20085;-78
2022/06/30 01:26:48;;;;;;;6.80;6.10;;;19.90;99.90;;;;;;5046864;28;20035;-77
2022/06/30 01:29:14;;;;;;;5.85;5.25;;;19.90;99.90;;;;;;5080124;28;20065;-78
2022/06/30 01:31:39;;;;;;;7.10;5.20;;;19.90;99.90;;;;;;5062806;28;20078;-78
2022/06/30 01:34:05;;;;;;;5.82;5.22;;;19.80;99.90;;;;;;5096347;28;20504;-77
2022/06/30 01:36:30;;;;;;;5.57;5.07;;;19.80;99.90;;;;;;5079745;28;20080;-77
2022/06/30 01:38:56;;;;;;;8.88;5.47;;;19.80;99.90;;;;;;5063313;28;20051;-78
2022/06/30 01:41:22;;;;;;;5.63;5.03;;;19.80;99.90;;;;;;5079735;28;20468;-78
2022/06/30 01:43:47;;;;;;;6.07;5.32;;;19.70;99.90;;;;;;5079634;28;20043;-78
2022/06/30 01:46:19;;;;;;;5.63;5.07;;;19.70;99.90;;;;;;5079406;28;20122;-78
2022/06/30 01:48:45;;;;;;;5.68;5.18;;;19.70;99.90;;;;;;5078697;28;20043;-78
2022/06/30 01:51:11;;;;;;;6.47;5.80;;;19.70;99.90;;;;;;5062774;28;20050;-77
2022/06/30 01:53:36;;;;;;;6.03;5.25;;;19.70;99.90;;;;;;5097186;28;20043;-78
2022/06/30 01:56:02;;;;;;;6.30;4.95;;;19.60;99.90;;;;;;5046658;28;20149;-78
2022/06/30 01:58:28;;;;;;;6.43;5.05;;;19.60;99.90;;;;;;5063444;28;20412;-77
2022/06/30 02:00:54;;;;;;;6.47;5.03;;;19.60;99.90;;;;;;5046514;28;20039;-78
2022/06/30 02:03:19;;;;;;;7.25;4.90;;;19.60;99.90;;;;;;5062798;28;20039;-78
2022/06/30 02:05:45;;;;;;;7.20;5.32;;;19.60;99.90;;;;;;5045706;28;20039;-78
2022/06/30 02:08:11;;;;;;;5.55;4.90;;;19.60;99.90;;;;;;5062618;28;20047;-78
2022/06/30 02:10:37;;;;;;;7.00;5.20;;;19.50;99.90;;;;;;5062667;28;20040;-78
2022/06/30 02:13:05;;;;;;;6.18;5.57;;;19.50;99.90;;;;;;5096148;28;20494;-78
2022/06/30 02:15:34;;;;;;;8.85;5.45;;;19.50;99.90;;;;;;5079295;28;20039;-78
2022/06/30 02:18:02;;;;;;;6.13;5.30;;;19.50;99.90;;;;;;5095677;28;20368;-78
2022/06/30 02:20:28;;;;;;;5.88;5.07;;;19.40;99.90;;;;;;5095339;28;20067;-78
2022/06/30 02:22:56;;;;;;;7.20;5.22;;;19.40;99.90;;;;;;5096404;28;20066;-78
2022/06/30 02:25:24;;;;;;;6.00;5.32;;;19.40;99.90;;;;;;5096814;28;20111;-78
2022/06/30 02:27:50;;;;;;;6.72;5.20;;;19.40;99.90;;;;;;5097509;28;20047;-78
2022/06/30 02:30:16;;;;;;;6.00;5.20;;;19.40;99.90;;;;;;5095974;28;20051;-78
2022/06/30 02:32:42;;;;;;;8.07;4.75;;;19.40;99.90;;;;;;5079598;28;20042;-78
2022/06/30 02:35:08;;;;;;;6.20;5.07;;;19.30;99.90;;;;;;5095425;28;20056;-78
2022/06/30 02:37:34;;;;;;;6.35;4.80;;;19.30;99.90;;;;;;5062441;28;20040;-77
2022/06/30 02:40:00;;;;;;;7.63;5.18;;;19.30;99.90;;;;;;5061950;28;20058;-77
2022/06/30 02:42:26;;;;;;;6.13;5.00;;;19.20;99.90;;;;;;5095366;28;20044;-78
2022/06/30 02:44:51;;;;;;;6.97;4.57;;;19.20;99.90;;;;;;5077791;28;20416;-78
2022/06/30 02:47:17;;;;;;;6.15;4.53;;;19.20;99.90;;;;;;5078343;28;20039;-78
2022/06/30 02:49:43;;;;;;;7.03;4.80;;;19.20;99.90;;;;;;5078450;28;20044;-78
2022/06/30 02:52:09;;;;;;;6.55;4.95;;;19.20;99.90;;;;;;5078846;28;20480;-78
2022/06/30 02:54:35;;;;;;;5.95;4.60;;;19.10;99.90;;;;;;5095172;28;20038;-78
2022/06/30 02:57:01;;;;;;;5.93;4.82;;;19.10;99.90;;;;;;5078339;28;20036;-78
2022/06/30 02:59:27;;;;;;;5.57;4.72;;;19.10;99.90;;;;;;5078779;28;20046;-78
2022/06/30 03:01:52;;;;;;;5.72;4.70;;;19.00;99.90;;;;;;5078481;28;20126;-78
2022/06/30 03:04:18;;;;;;;6.60;4.95;;;19.00;99.90;;;;;;5045435;28;20074;-78
2022/06/30 03:06:44;;;;;;;6.63;4.43;;;19.00;99.90;;;;;;5094768;28;20482;-78
2022/06/30 03:09:10;;;;;;;5.40;4.90;;;19.00;99.90;;;;;;5061403;28;20071;-78
2022/06/30 03:11:36;;;;;;;6.05;4.95;;;19.00;99.90;;;;;;5061746;28;20040;-78
2022/06/30 03:14:01;;;;;;;5.35;4.85;;;18.90;99.90;;;;;;5078235;28;20518;-78
2022/06/30 03:16:27;;;;;;;5.28;4.63;;;18.90;99.90;;;;;;5094972;28;20088;-78
2022/06/30 03:18:53;;;;;;;7.00;4.32;;;18.90;99.90;;;;;;5061249;28;20110;-78
2022/06/30 03:21:20;;;;;;;7.20;4.68;;;18.90;99.90;;;;;;5061463;28;20027;-78
2022/06/30 03:23:46;;;;;;;4.97;4.47;;;18.80;99.90;;;;;;5061281;28;20106;-78
2022/06/30 03:26:12;;;;;;;5.22;4.72;;;18.90;99.90;;;;;;5061748;28;20048;-77
2022/06/30 03:28:38;;;;;;;5.85;5.05;;;18.80;99.90;;;;;;5078084;28;20123;-77
2022/06/30 03:31:05;;;;;;;7.40;5.00;;;18.80;99.90;;;;;;5077777;28;20525;-78
2022/06/30 03:33:30;;;;;;;6.93;5.72;;;18.80;99.90;;;;;;5077456;28;20051;-78
2022/06/30 03:35:57;;;;;;;6.25;5.65;;;18.70;99.90;;;;;;5095160;28;20432;-78
2022/06/30 03:38:23;;;;;;;6.32;5.40;;;18.70;99.90;;;;;;5078205;28;20039;-77
2022/06/30 03:40:49;;;;;;;8.07;5.90;;;18.70;99.90;;;;;;5078050;28;20032;-78
2022/06/30 03:43:16;;;;;;;5.78;5.28;;;18.70;99.90;;;;;;5077757;28;20131;-77
2022/06/30 03:45:42;;;;;;;7.07;5.60;;;18.70;99.90;;;;;;5078110;28;20047;-77
2022/06/30 03:48:08;;;;;;;7.05;5.30;;;18.70;99.90;;;;;;5095939;28;20043;-78
2022/06/30 03:50:34;;;;;;;7.50;5.13;;;18.70;99.90;;;;;;5079262;28;20510;-77
2022/06/30 03:53:01;;;;;;;5.72;5.13;;;18.70;99.90;;;;;;5061626;28;20483;-77
2022/06/30 03:55:27;;;;;;;6.75;5.97;;;18.70;99.90;;;;;;5096653;28;20031;-78
2022/06/30 03:57:53;;;;;;;7.78;5.57;;;18.70;99.90;;;;;;5099065;28;20436;-78
2022/06/30 04:00:19;;;;;;;6.65;5.63;;;18.70;99.90;;;;;;5066165;28;20145;-78
2022/06/30 04:02:45;;;;;;;5.65;5.15;;;18.70;99.90;;;;;;5082403;28;20032;-78
2022/06/30 04:05:11;;;;;;;6.20;5.60;;;18.70;99.90;;;;;;5082099;28;20047;-77
2022/06/30 04:07:41;;;;;;;5.57;5.03;;;18.70;99.90;;;;;;5082686;28;20130;-86
2022/06/30 04:10:08;;;;;;;6.68;5.80;;;18.70;99.90;;;;;;5082475;28;20051;-86
2022/06/30 04:12:34;;;;;;;7.45;6.03;;;18.70;99.90;;;;;;5082173;28;20047;-86
2022/06/30 04:14:59;;;;;;;7.40;5.28;;;18.70;99.90;;;;;;5098916;28;20048;-86
2022/06/30 04:17:25;;;;;;;7.75;5.63;;;18.60;99.90;;;;;;5065685;28;20180;-86
2022/06/30 04:19:51;;;;;;;9.00;6.00;;;18.60;99.90;;;;;;5082342;28;20075;-85
2022/06/30 04:22:17;;;;;;;7.20;5.78;;;18.60;99.90;;;;;;5066011;28;20043;-85
2022/06/30 04:24:42;;;;;;;6.95;6.20;;;18.60;99.90;;;;;;5081956;28;20035;-85
2022/06/30 04:27:08;;;;;;;6.70;5.88;;;18.60;99.90;;;;;;5064799;28;20047;-85
2022/06/30 04:29:34;;;;;;;6.03;5.43;;;18.60;99.90;;;;;;5082626;28;20044;-85
2022/06/30 04:34:44;;;;;;;6.50;5.80;;;18.60;99.90;;;;;;5098860;28;20125;-85
2022/06/30 04:37:10;;;;;;;6.28;5.60;;;18.70;99.90;;;;;;5099093;28;20053;-86
2022/06/30 04:39:35;;;;;;;6.50;5.90;;;18.70;99.90;;;;;;5082069;28;20449;-86
2022/06/30 04:42:01;;;;;;;9.45;5.50;;;18.60;99.90;;;;;;5081888;28;20046;-86
2022/06/30 04:44:27;;;;;;;5.68;5.18;;;18.70;99.90;;;;;;5098942;28;20084;-85
2022/06/30 04:46:53;;;;;;;8.35;5.70;;;18.70;99.90;;;;;;5081554;28;20096;-86
2022/06/30 04:49:18;;;;;;;7.53;6.40;;;18.70;99.90;;;;;;5098271;28;20047;-85
2022/06/30 04:51:44;;;;;;;6.65;6.00;;;18.70;99.90;;;;;;5081157;28;20051;-86
2022/06/30 04:54:10;;;;;;;7.75;6.70;;;18.70;99.90;;;;;;5081284;28;20094;-86
2022/06/30 04:56:35;;;;;;;7.15;6.15;;;18.70;99.90;;;;;;5081027;28;20031;-85
2022/06/30 04:59:01;;;;;;;8.98;6.47;;;18.80;99.90;;;;;;5081401;28;20047;-85
2022/06/30 05:01:26;;;;;;;6.90;6.20;;;18.80;99.90;;;;;;5081649;28;20036;-86
2022/06/30 05:03:52;;;;;;;7.10;6.20;;;18.80;99.90;;;;;;5080973;28;20050;-85
2022/06/30 05:06:18;;;;;;;7.80;6.40;;;18.80;99.90;;;;;;5081196;28;20117;-86
2022/06/30 05:08:44;;;;;;;7.53;6.38;;;18.80;99.90;;;;;;5098536;28;20421;-86
2022/06/30 05:11:09;;;;;;;10.77;6.47;;;18.90;99.90;;;;;;5081353;28;20514;-86
2022/06/30 05:13:35;;;;;;;8.25;6.72;;;18.90;99.90;;;;;;5082048;28;20063;-86
2022/06/30 05:16:02;;;;;;;8.82;6.20;;;18.90;99.90;;;;;;5081777;28;20046;-86
2022/06/30 05:18:28;;;;;;;7.70;6.90;;;18.90;99.90;;;;;;5081115;28;20043;-86
2022/06/30 05:20:54;;;;;;;7.88;6.50;;;19.00;99.90;;;;;;5097854;28;20047;-86
2022/06/30 05:23:20;;;;;;;7.55;6.72;;;19.00;99.90;;;;;;5081041;28;20031;-86
2022/06/30 05:28:30;;;;;;;8.70;6.72;;;19.10;99.90;;;;;;5097880;28;20050;-86
2022/06/30 05:30:56;;;;;;;9.27;6.65;;;19.20;99.90;;;;;;5081685;28;20039;-86
2022/06/30 05:33:23;;;;;;;8.05;6.93;;;19.20;99.90;;;;;;5083681;28;20107;-86
2022/06/30 05:35:51;;;;;;;8.00;7.18;;;19.30;99.90;;;;;;5098075;28;20079;-86
2022/06/30 05:38:18;;;;;;;9.07;7.00;;;19.30;99.90;;;;;;5080141;28;20036;-85
2022/06/30 05:40:47;;;;;;;7.63;6.93;;;19.40;99.90;;;;;;5097986;28;20031;-85
2022/06/30 05:43:17;;;;;;;7.97;7.18;;;19.40;99.90;;;;;;5082663;28;20610;-86
2022/06/30 05:45:46;;;;;;;8.90;6.95;;;19.50;99.90;;;;;;5081680;28;20047;-85
2022/06/30 05:48:12;;;;;;;8.77;7.88;;;19.50;99.90;;;;;;5081450;28;20055;-86
2022/06/30 05:50:38;;;;;;;8.02;7.22;;;19.60;99.90;;;;;;5097770;28;20110;-86
2022/06/30 05:53:03;;;;;;;8.68;7.60;;;19.70;99.90;;;;;;5097450;28;20126;-86
2022/06/30 05:55:29;;;;;;;10.93;7.68;;;19.70;99.90;;;;;;5063887;28;20153;-85
2022/06/30 05:57:57;;;;;;;8.95;8.05;;;19.80;99.90;;;;;;5080598;28;20039;-85
2022/06/30 06:00:25;;;;;;;8.80;8.00;;;19.80;99.90;;;;;;5097747;28;20040;-85
2022/06/30 06:02:51;;;;;;;9.77;7.85;;;19.90;99.90;;;;;;5097596;28;20060;-86
2022/06/30 06:05:17;;;;;;;8.77;7.97;;;20.00;99.90;;;;;;5097919;28;20043;-85
2022/06/30 06:07:44;;;;;;;8.02;7.32;;;20.00;99.90;;;;;;5065067;28;20504;-85
2022/06/30 06:10:13;;;;;;;8.50;7.60;;;20.10;99.90;;;;;;5098038;28;20047;-86
2022/06/30 06:12:39;;;;;;;8.02;7.22;;;20.20;99.90;;;;;;5098452;28;20451;-86
2022/06/30 06:15:05;;;;;;;8.50;7.57;;;20.20;99.90;;;;;;5080613;28;20388;-85
2022/06/30 06:17:31;;;;;;;9.68;7.72;;;20.30;99.90;;;;;;5079214;28;20039;-85
2022/06/30 06:19:57;;;;;;;8.70;7.80;;;20.40;99.90;;;;;;5080732;28;20035;-85
2022/06/30 06:22:23;;;;;;;10.90;8.88;;;20.50;99.90;;;;;;5064610;28;20072;-85
2022/06/30 06:24:49;;;;;;;11.20;7.60;;;20.60;99.90;;;;;;5098042;28;20046;-86
2022/06/30 06:27:15;;;;;;;9.20;8.30;;;20.70;99.90;;;;;;5081064;28;20047;-85
2022/06/30 06:29:40;;;;;;;10.52;8.65;;;20.80;99.90;;;;;;5063724;28;20047;-86
2022/06/30 06:32:06;;;;;;;10.43;9.25;;;20.90;99.90;;;;;;5079913;28;20043;-85
2022/06/30 06:34:32;;;;;;;12.05;9.90;;;21.10;99.90;;;;;;5096619;28;20113;-86
2022/06/30 06:36:58;;;;;;;12.50;11.25;;;21.30;99.90;;;;;;5080317;28;20043;-86
2022/06/30 06:39:23;;;;;;;10.00;8.90;;;21.50;99.90;;;;;;5096620;28;20043;-86
2022/06/30 06:41:49;;;;;;;9.75;8.85;;;21.60;99.90;;;;;;5063114;28;20046;-85
2022/06/30 06:44:15;;;;;;;10.70;9.57;;;21.80;99.90;;;;;;5046160;28;20035;-85
2022/06/30 06:46:40;;;;;;;12.30;10.45;;;21.90;99.90;;;;;;5063053;28;20436;-86
2022/06/30 06:49:07;;;;;;;13.25;9.77;;;22.10;99.90;;;;;;5079821;28;20032;-86
2022/06/30 06:51:34;;;;;;;10.90;9.80;;;22.20;99.90;;;;;;5080122;28;20375;-86
2022/06/30 06:54:00;;;;;;;11.05;9.35;;;22.40;99.90;;;;;;5062331;28;20035;-85
2022/06/30 06:56:27;;;;;;;11.68;10.50;;;22.50;99.90;;;;;;5062893;28;20036;-84
2022/06/30 06:58:53;;;;;;;11.50;10.40;;;22.70;99.90;;;;;;5079382;28;20357;-85
2022/06/30 07:01:18;;;;;;;11.82;10.65;;;22.80;99.90;;;;;;5079870;28;20103;-85
2022/06/30 07:03:44;;;;;;;11.23;10.07;;;23.00;99.90;;;;;;5096785;28;20039;-85
2022/06/30 07:06:10;;;;;;;10.00;9.10;;;23.20;99.90;;;;;;5079491;28;20044;-85
2022/06/30 07:08:36;;;;;;;11.63;10.43;;;23.30;99.90;;;;;;5062348;28;20075;-85
2022/06/30 07:11:03;;;;;;;11.90;10.30;;;23.40;99.90;;;;;;5095821;28;20510;-86
2022/06/30 07:13:30;;;;;;;14.00;10.75;;;23.60;99.90;;;;;;5095733;28;20044;-85
2022/06/30 07:15:56;;;;;;;11.13;10.13;;;23.70;99.90;;;;;;5095268;28;20126;-85
2022/06/30 07:18:21;;;;;;;12.57;11.23;;;23.80;99.90;;;;;;5078555;28;20131;-86
2022/06/30 07:20:48;;;;;;;11.20;10.10;;;23.90;99.90;;;;;;5079718;28;20042;-85
2022/06/30 07:23:14;;;;;;;11.68;10.13;;;24.00;99.90;;;;;;5063146;28;20032;-85
2022/06/30 07:25:40;;;;;;;13.60;11.38;;;24.10;99.90;;;;;;5096713;28;20036;-86
2022/06/30 07:28:06;;;;;;;12.35;11.05;;;24.30;99.90;;;;;;5095830;28;20047;-86
2022/06/30 07:30:32;;;;;;;11.43;10.38;;;24.30;99.90;;;;;;5098159;28;20046;-85
2022/06/30 07:32:58;;;;;;;10.93;9.82;;;24.50;99.90;;;;;;5082339;28;20039;-85
2022/06/30 07:35:23;;;;;;;12.82;10.20;;;24.60;99.90;;;;;;5082153;28;20047;-85
2022/06/30 07:37:49;;;;;;;10.75;9.68;;;24.80;99.90;;;;;;5083340;28;20043;-85
2022/06/30 07:40:16;;;;;;;10.88;9.25;;;25.00;99.90;;;;;;5099625;28;20110;-85
2022/06/30 07:42:42;;;;;;;14.13;10.90;;;25.30;99.90;;;;;;5099609;28;20079;-85
2022/06/30 07:45:10;;;;;;;10.55;9.63;;;25.60;99.90;;;;;;5065653;28;20096;-85
2022/06/30 07:47:39;;;;;;;11.60;10.38;;;25.80;99.90;;;;;;5099533;28;20143;-85
2022/06/30 07:50:05;;;;;;;10.10;9.10;;;25.90;99.90;;;;;;5082549;28;20511;-85
2022/06/30 07:52:33;;;;;;;10.55;9.00;;;26.20;99.90;;;;;;5099427;28;20039;-85
2022/06/30 07:54:59;;;;;;;12.73;10.35;;;26.40;99.90;;;;;;5066237;28;20045;-85
2022/06/30 07:57:27;;;;;;;12.30;10.60;;;26.60;99.90;;;;;;5082905;28;20476;-85
2022/06/30 07:59:53;;;;;;;11.20;10.20;;;26.90;99.90;;;;;;5099300;28;20040;-85
2022/06/30 08:02:19;;;;;;;11.18;10.07;;;27.00;99.90;;;;;;5082984;28;20087;-85
2022/06/30 08:04:45;;;;;;;12.35;11.15;;;27.10;99.90;;;;;;5083563;28;20506;-85
2022/06/30 08:07:10;;;;;;;11.25;10.15;;;27.20;99.90;;;;;;5082276;28;20499;-85
2022/06/30 08:09:36;;;;;;;12.45;11.15;;;27.30;99.90;;;;;;5099522;28;20043;-85
2022/06/30 08:12:03;;;;;;;11.18;9.98;;;27.30;99.90;;;;;;5099842;28;20036;-85
2022/06/30 08:14:29;;;;;;;10.32;9.43;;;27.40;99.90;;;;;;5099150;28;20048;-86
2022/06/30 08:16:54;;;;;;;10.88;9.88;;;27.50;99.90;;;;;;5099166;28;20055;-85
2022/06/30 08:19:20;;;;;;;10.57;9.55;;;27.60;99.90;;;;;;5099304;28;20558;-85
2022/06/30 08:21:47;;;;;;;11.60;10.48;;;27.80;99.90;;;;;;5082183;28;20038;-85
2022/06/30 08:24:13;;;;;;;11.65;10.65;;;27.90;99.90;;;;;;5065582;28;20084;-83
2022/06/30 08:26:39;;;;;;;10.40;9.40;;;28.00;99.30;;;;;;5099161;28;20061;-85
2022/06/30 08:29:05;;;;;;;10.68;9.65;;;28.00;98.70;;;;;;5082034;28;20032;-85
2022/06/30 08:31:32;;;;;;;11.02;9.95;;;28.10;98.70;;;;;;5098397;28;20498;-86
2022/06/30 08:33:58;;;;;;;12.80;10.43;;;28.20;98.60;;;;;;5078950;28;20056;-85
2022/06/30 08:36:24;;;;;;;41.78;10.30;;;28.30;98.00;;;;;;5078524;28;20062;-86
2022/06/30 08:38:50;;;;;;;10.82;9.82;;;28.40;97.90;;;;;;5061119;28;20047;-85
2022/06/30 08:44:00;;;;;;;11.77;10.10;;;28.50;97.30;;;;;;5067289;28;20052;-85
2022/06/30 08:46:27;;;;;;;10.98;9.27;;;28.60;97.10;;;;;;5094835;28;20101;-85
2022/06/30 08:48:54;;;;;;;11.90;10.70;;;28.70;96.20;;;;;;5094180;28;20043;-84
2022/06/30 08:51:21;;;;;;;11.73;10.52;;;28.80;96.00;;;;;;5094999;28;20048;-85
2022/06/30 08:53:57;;;;;;;13.73;12.18;;;28.90;95.40;;;;;;5077830;28;20040;-85
2022/06/30 08:56:23;;;;;;;11.52;10.40;;;29.10;94.10;;;;;;5094599;28;20044;-85
2022/06/30 08:58:51;;;;;;;12.57;11.27;;;29.10;94.70;;;;;;5095114;28;20040;-85
2022/06/30 09:01:20;;;;;;;13.55;9.55;;;29.00;94.60;;;;;;5095065;28;20040;-85
2022/06/30 09:03:46;;;;;;;11.30;10.18;;;29.00;94.30;;;;;;5095563;28;20051;-85
2022/06/30 09:06:17;;;;;;;12.18;10.88;;;29.10;94.20;;;;;;5078531;28;20109;-84
2022/06/30 09:08:43;;;;;;;9.73;8.15;;;29.20;93.80;;;;;;5094304;28;20048;-85
2022/06/30 09:11:09;;;;;;;10.45;9.38;;;29.30;93.50;;;;;;5078371;28;20040;-83
2022/06/30 09:13:48;;;;;;;11.48;8.93;;;29.40;92.60;;;;;;5078044;28;20040;-84
2022/06/30 09:16:14;;;;;;;9.18;8.13;;;29.60;91.80;;;;;;5094935;28;20046;-85
2022/06/30 09:18:40;;;;;;;10.35;9.45;;;29.70;92.00;;;;;;5077560;28;20093;-85
2022/06/30 09:21:19;;;;;;;11.68;10.63;;;29.80;91.80;;;;;;5094237;28;20089;-85
2022/06/30 09:23:47;;;;;;;11.43;10.32;;;30.00;91.10;;;;;;5094222;28;20127;-85
2022/06/30 09:26:22;;;;;;;11.52;10.30;;;29.90;91.30;;;;;;5077661;28;20134;-85
2022/06/30 09:28:53;;;;;;;11.10;10.00;;;29.90;91.20;;;;;;5077099;28;20552;-85
2022/06/30 09:31:34;;;;;;;13.95;12.55;;;29.90;91.30;;;;;;5076482;28;20079;-84
2022/06/30 09:34:19;;;;;;;12.30;11.13;;;29.90;89.70;;;;;;5095902;28;20052;-85
2022/06/30 09:36:46;;;;;;;12.35;11.05;;;29.90;90.30;;;;;;5078034;28;20157;-85
2022/06/30 09:39:13;;;;;;;24.35;9.50;;;30.00;90.70;;;;;;5077078;28;20042;-85
2022/06/30 09:41:41;;;;;;;11.48;9.32;;;29.90;90.60;;;;;;5095501;28;20036;-84
2022/06/30 09:44:19;;;;;;;11.07;9.98;;;29.90;90.40;;;;;;5061149;28;20046;-85
2022/06/30 09:47:03;;;;;;;10.48;8.38;;;29.80;90.10;;;;;;5094379;28;20083;-85
2022/06/30 09:49:30;;;;;;;10.43;9.15;;;29.60;90.70;;;;;;5093702;28;20044;-85
2022/06/30 09:51:56;;;;;;;11.48;9.07;;;29.60;90.50;;;;;;5094667;28;20040;-85
2022/06/30 09:54:22;;;;;;;12.73;9.65;;;29.60;90.70;;;;;;5095313;28;20053;-85
2022/06/30 09:57:02;;;;;;;10.93;9.43;;;29.50;90.70;;;;;;5076592;28;20526;-85
2022/06/30 09:59:28;;;;;;;12.13;9.13;;;29.40;89.00;;;;;;5079215;28;20538;-85
2022/06/30 10:01:55;;;;;;;10.90;9.45;;;29.50;90.20;;;;;;5094813;28;20032;-85
2022/06/30 10:04:20;;;;;;;9.13;7.72;;;29.50;89.70;;;;;;5077816;28;20054;-85
2022/06/30 10:06:46;;;;;;;9.77;8.88;;;29.50;90.20;;;;;;5099139;28;20040;-85
2022/06/30 10:09:20;;;;;;;12.07;9.57;;;29.50;90.10;;;;;;5083241;28;20071;-84
2022/06/30 10:11:47;;;;;;;10.93;9.82;;;29.50;90.20;;;;;;5117803;28;20027;-84
2022/06/30 10:14:15;;;;;;;12.18;10.98;;;29.40;90.60;;;;;;5099849;28;20035;-85
2022/06/30 10:16:42;;;;;;;11.85;10.75;;;29.40;90.50;;;;;;5082832;28;20056;-85
2022/06/30 10:19:12;;;;;;;13.98;9.23;;;29.40;90.00;;;;;;5094339;28;20067;-85
2022/06/30 10:21:39;;;;;;;16.25;11.93;;;29.40;89.30;;;;;;5094177;28;20051;-85
2022/06/30 10:24:06;;;;;;;14.20;10.85;;;29.30;90.00;;;;;;5094666;28;20044;-85
2022/06/30 10:29:18;;;;;;;;;;;28.90;88.50;;;;;;5093704;28;20040;-84
2022/06/30 10:31:51;;;;;;;12.02;9.77;;;28.60;89.30;;;;;;5093776;28;19916;-85
2022/06/30 10:34:24;;;;;;;11.63;10.52;;;28.50;90.00;;;;;;5094259;28;20059;-85
2022/06/30 10:37:05;;;;;;;13.55;10.45;;;28.30;89.60;;;;;;5093706;28;20036;-84
2022/06/30 10:39:46;;;;;;;12.45;9.80;;;28.20;90.20;;;;;;5093784;28;20079;-85
2022/06/30 10:42:41;;;;;;;12.07;7.40;;;28.10;89.10;;;;;;5077375;28;20069;-85
2022/06/30 10:45:30;;;;;;;8.80;7.90;;;28.10;86.20;;;;;;5094322;28;20120;-85
2022/06/30 10:48:05;;;;;;;8.30;6.30;;;28.00;85.60;;;;;;5063578;28;20044;-78
2022/06/30 10:50:42;;;;;;;7.93;6.00;;;27.90;86.40;;;;;;5076125;28;20113;-79
2022/06/30 10:53:15;;;;;;;9.73;5.22;;;27.80;84.40;;;;;;5058870;28;20467;-78
2022/06/30 10:55:47;;;;;;;8.27;5.25;;;27.70;84.70;;;;;;5075259;28;20132;-78
2022/06/30 10:58:13;;;;;;;5.68;3.88;;;27.70;85.10;;;;;;5075413;28;20511;-79
2022/06/30 11:00:59;;;;;;;9.02;4.22;;;27.70;85.00;;;;;;5058140;28;20039;-79
2022/06/30 11:03:34;;;;;;;12.00;3.70;;;27.60;85.10;;;;;;5075136;28;20381;-79
2022/06/30 11:06:12;;;;;;;6.18;3.30;;;27.70;83.20;;;;;;5079029;28;20036;-79
2022/06/30 11:08:52;;;;;;;5.15;4.13;;;27.70;82.30;;;;;;5095796;28;20054;-79
2022/06/30 11:11:20;;;;;;;8.85;6.40;;;27.60;83.50;;;;;;5095791;28;20073;-79
2022/06/30 11:13:47;;;;;;;13.73;8.15;;;27.70;85.40;;;;;;5078942;28;20405;-79
2022/06/30 11:16:18;;;;;;;16.45;10.00;;;27.70;87.40;;;;;;5078636;28;20047;-79
2022/06/30 11:18:44;;;;;;;12.82;9.25;;;27.80;88.60;;;;;;5079280;28;20036;-78
2022/06/30 11:21:10;;;;;;;10.25;8.60;;;27.90;89.50;;;;;;5078827;28;20127;-78
2022/06/30 11:23:41;;;;;;;11.05;9.77;;;28.00;89.80;;;;;;5078993;28;20075;-79
2022/06/30 11:28:53;;;;;;;13.13;9.30;;;28.00;89.70;;;;;;5095312;28;20052;-79
2022/06/30 11:31:36;;;;;;;10.20;8.90;;;28.10;89.10;;;;;;5078315;28;20047;-78
2022/06/30 11:34:10;;;;;;;11.23;9.77;;;28.10;87.20;;;;;;5078411;28;20054;-79
2022/06/30 11:36:38;;;;;;;13.35;9.88;;;28.10;88.80;;;;;;5079009;28;20388;-79
2022/06/30 11:39:14;;;;;;;10.98;8.00;;;28.20;88.40;;;;;;5079887;28;20119;-79
2022/06/30 11:41:57;;;;;;;11.75;7.88;;;28.30;88.80;;;;;;5095998;28;20043;-79
2022/06/30 11:44:32;;;;;;;12.32;7.45;;;28.40;89.20;;;;;;5096035;28;20399;-79
2022/06/30 11:47:10;;;;;;;8.50;6.97;;;28.50;88.30;;;;;;5095549;28;20078;-79
2022/06/30 11:49:41;;;;;;;8.88;5.90;;;28.60;88.30;;;;;;5078503;28;20067;-79
2022/06/30 11:52:29;;;;;;;10.23;7.93;;;28.70;88.70;;;;;;5096015;28;20051;-79
2022/06/30 11:54:58;;;;;;;11.40;7.60;;;28.80;85.40;;;;;;5078296;28;20059;-79
2022/06/30 11:57:26;;;;;;;10.23;7.40;;;28.80;88.30;;;;;;5096152;28;20047;-79
2022/06/30 12:00:02;;;;;;;8.52;6.82;;;28.80;88.20;;;;;;5062451;28;20032;-79
2022/06/30 12:02:28;;;;;;;8.50;6.85;;;28.80;88.10;;;;;;5078861;28;20123;-79
2022/06/30 12:04:57;;;;;;;6.63;4.68;;;28.80;87.80;;;;;;5095338;28;20058;-79
2022/06/30 12:07:24;;;;;;;12.50;4.75;;;28.70;87.50;;;;;;5078620;28;20097;-79
2022/06/30 12:09:52;;;;;;;7.13;5.50;;;28.70;87.00;;;;;;5095706;28;20075;-79
2022/06/30 12:12:22;;;;;;;47.42;6.35;;;28.80;84.30;;;;;;5078374;28;20096;-78
2022/06/30 12:14:47;;;;;;;10.73;3.90;;;28.70;85.10;;;;;;5078279;28;20040;-79
2022/06/30 12:17:13;;;;;;;5.28;3.78;;;28.70;84.00;;;;;;5078512;28;20085;-79
2022/06/30 12:19:43;;;;;;;7.30;3.28;;;28.70;83.70;;;;;;5095321;28;20135;-78
2022/06/30 12:22:10;;;;;;;10.73;3.67;;;28.70;83.30;;;;;;5061947;28;20040;-79
2022/06/30 12:24:38;;;;;;;8.55;4.00;;;28.80;83.90;;;;;;5045514;28;20044;-79
2022/06/30 12:27:04;;;;;;;8.50;3.58;;;28.70;83.40;;;;;;5062170;28;20487;-79
2022/06/30 12:29:30;;;;;;;7.13;3.95;;;28.80;84.30;;;;;;5062051;28;20040;-79
2022/06/30 12:31:57;;;;;;;6.93;3.70;;;28.90;84.40;;;;;;5096184;28;20048;-79
2022/06/30 12:34:24;;;;;;;8.13;4.68;;;29.00;85.00;;;;;;5077804;28;20048;-79
2022/06/30 12:36:51;;;;;;;7.22;3.95;;;29.10;85.00;;;;;;5061472;28;20044;-79
2022/06/30 12:39:17;;;;;;;7.40;3.90;;;29.20;84.80;;;;;;5078060;28;20040;-79
2022/06/30 12:41:43;;;;;;;13.02;4.35;;;29.30;84.30;;;;;;5078029;28;20039;-79
2022/06/30 12:44:13;;;;;;;7.20;3.47;;;29.30;85.00;;;;;;5077207;28;20040;-78
2022/06/30 12:46:46;;;;;;;12.52;4.18;;;29.40;84.80;;;;;;5061052;28;20040;-79
2022/06/30 12:49:22;;;;;;;8.38;3.95;;;29.50;83.90;;;;;;5061276;28;20085;-79
2022/06/30 12:51:49;;;;;;;7.28;3.65;;;29.60;83.20;;;;;;5077633;28;20105;-79
2022/06/30 12:54:21;;;;;;;8.52;3.55;;;29.60;84.10;;;;;;5077849;28;20109;-79
2022/06/30 12:56:50;;;;;;;5.20;3.40;;;29.60;83.90;;;;;;5094918;28;20143;-79
2022/06/30 12:59:23;;;;;;;8.52;3.92;;;29.70;84.00;;;;;;5078041;28;20396;-79